Time;durP1;ratioP1;P1;durP2;ratioP2;P2;SDS_P1;SDS_P2;PMS_P1;PMS_P2;Temp;Humidity;BMP_temperature;BMP_pressure;BME280_temperature;BME280_humidity;BME280_pressure;Samples;Min_cycle;Max_cycle;Signal;HPM_P1;HPM_P2
2023/05/06 00:01:13;;;;;;;10.18;6.38;;;13.00;99.90;;;;;;5012216;28;20041;-79
2023/05/06 00:03:39;;;;;;;8.00;5.93;;;13.00;99.90;;;;;;5008340;28;20159;-78
2023/05/06 00:06:07;;;;;;;7.47;5.65;;;13.00;99.90;;;;;;4994676;28;20026;-79
2023/05/06 00:08:33;;;;;;;10.38;5.90;;;13.00;99.90;;;;;;5021588;28;20041;-79
2023/05/06 00:10:59;;;;;;;9.55;5.38;;;13.00;99.90;;;;;;5010470;28;20022;-79
2023/05/06 00:13:24;;;;;;;9.73;5.65;;;13.00;99.90;;;;;;5000255;28;20080;-79
2023/05/06 00:15:50;;;;;;;6.78;4.93;;;13.00;99.90;;;;;;5011112;28;20029;-78
2023/05/06 00:18:16;;;;;;;11.80;5.35;;;12.90;99.90;;;;;;5011951;28;20433;-78
2023/05/06 00:20:41;;;;;;;5.65;4.38;;;12.90;99.90;;;;;;5009733;28;20050;-78
2023/05/06 00:23:07;;;;;;;7.43;5.45;;;12.80;99.90;;;;;;5012380;28;20112;-79
2023/05/06 00:25:33;;;;;;;9.75;6.10;;;12.70;99.90;;;;;;5000457;28;20136;-78
2023/05/06 00:28:01;;;;;;;11.88;7.82;;;12.60;99.90;;;;;;5002364;28;20390;-80
2023/05/06 00:30:26;;;;;;;14.25;8.02;;;12.60;99.90;;;;;;5002484;28;20171;-79
2023/05/06 00:32:52;;;;;;;16.98;7.97;;;12.60;99.90;;;;;;5016037;28;20113;-79
2023/05/06 00:35:18;;;;;;;11.30;7.80;;;12.60;99.90;;;;;;5003151;28;20026;-78
2023/05/06 00:37:55;;;;;;;13.95;9.02;;;12.70;99.90;;;;;;5004795;28;20019;-78
2023/05/06 00:40:21;;;;;;;20.15;10.43;;;12.60;99.90;;;;;;5017173;28;20040;-79
2023/05/06 00:42:46;;;;;;;16.40;9.93;;;12.60;99.90;;;;;;5000455;28;20030;-78
2023/05/06 00:45:12;;;;;;;15.57;9.93;;;12.70;99.90;;;;;;5014776;28;21357;-79
2023/05/06 00:47:38;;;;;;;18.65;10.82;;;12.70;99.90;;;;;;5005373;28;20035;-78
2023/05/06 00:50:06;;;;;;;15.38;9.95;;;12.70;99.90;;;;;;5016963;28;20021;-78
2023/05/06 00:52:34;;;;;;;11.93;7.30;;;12.70;99.90;;;;;;5015666;28;20030;-79
2023/05/06 00:55:00;;;;;;;11.77;7.80;;;12.70;99.90;;;;;;5009181;28;20125;-79
2023/05/06 00:57:28;;;;;;;17.65;10.82;;;12.70;99.90;;;;;;5021218;28;20084;-78
2023/05/06 00:59:54;;;;;;;25.05;13.13;;;12.70;99.90;;;;;;5034773;28;20060;-79
2023/05/06 01:02:19;;;;;;;18.48;10.57;;;12.80;99.90;;;;;;5027634;28;20022;-79
2023/05/06 01:04:46;;;;;;;22.33;12.27;;;12.80;99.90;;;;;;5038051;28;20083;-79
2023/05/06 01:07:25;;;;;;;20.30;11.65;;;12.80;99.90;;;;;;5019983;28;20062;-78
2023/05/06 01:10:19;;;;;;;18.30;11.48;;;12.80;99.90;;;;;;5000883;28;20025;-79
2023/05/06 01:12:49;;;;;;;17.77;11.32;;;12.80;99.90;;;;;;5014780;28;20498;-78
2023/05/06 01:15:20;;;;;;;23.63;12.38;;;12.70;99.90;;;;;;5004385;28;20040;-78
2023/05/06 01:17:50;;;;;;;17.17;9.75;;;12.70;99.90;;;;;;5018190;28;20064;-79
2023/05/06 01:20:19;;;;;;;17.25;10.20;;;12.60;99.90;;;;;;5026685;28;20455;-79
2023/05/06 01:22:45;;;;;;;20.52;11.50;;;12.60;99.90;;;;;;5003178;28;20551;-79
2023/05/06 01:25:19;;;;;;;27.73;15.13;;;12.60;99.90;;;;;;5015702;28;20357;-78
2023/05/06 01:27:47;;;;;;;25.90;13.82;;;12.60;99.90;;;;;;4999106;28;20401;-78
2023/05/06 01:30:18;;;;;;;29.23;15.82;;;12.70;99.90;;;;;;5014594;28;20405;-79
2023/05/06 01:32:53;;;;;;;31.95;16.42;;;12.70;99.90;;;;;;5003343;28;20097;-78
2023/05/06 01:35:45;;;;;;;29.02;15.45;;;12.70;99.90;;;;;;5013400;28;20056;-79
2023/05/06 01:38:20;;;;;;;24.63;14.70;;;12.70;99.90;;;;;;5015964;28;20942;-78
2023/05/06 01:40:53;;;;;;;25.90;13.25;;;12.70;99.90;;;;;;5015373;28;20017;-78
2023/05/06 01:43:19;;;;;;;22.00;12.73;;;12.60;99.90;;;;;;5020772;28;20925;-79
2023/05/06 01:45:52;;;;;;;17.15;10.60;;;12.60;99.90;;;;;;5017252;28;20041;-78
2023/05/06 01:48:21;;;;;;;24.23;12.07;;;12.50;99.90;;;;;;5016026;28;20373;-79
2023/05/06 01:50:47;;;;;;;22.73;11.82;;;12.50;99.90;;;;;;5014646;28;20426;-79
2023/05/06 01:53:13;;;;;;;20.73;10.57;;;12.40;99.90;;;;;;5002075;28;20024;-79
2023/05/06 01:55:38;;;;;;;21.48;10.95;;;12.40;99.90;;;;;;5012369;28;20041;-78
2023/05/06 01:58:04;;;;;;;22.13;10.82;;;12.30;99.90;;;;;;4996022;28;20453;-78
2023/05/06 02:00:29;;;;;;;21.85;10.07;;;12.30;99.90;;;;;;5018189;28;20041;-78
2023/05/06 02:02:55;;;;;;;30.00;12.20;;;12.30;99.90;;;;;;5012173;28;20026;-78
2023/05/06 02:05:21;;;;;;;21.52;11.35;;;12.30;99.90;;;;;;5002132;28;20394;-79
2023/05/06 02:07:46;;;;;;;22.63;10.95;;;12.30;99.90;;;;;;4995555;28;20040;-78
2023/05/06 02:10:12;;;;;;;23.85;12.13;;;12.30;99.90;;;;;;5001266;28;20013;-79
2023/05/06 02:12:38;;;;;;;23.35;12.10;;;12.40;99.90;;;;;;5012366;28;20509;-78
2023/05/06 02:15:04;;;;;;;23.70;12.73;;;12.40;99.90;;;;;;4996644;28;20030;-79
2023/05/06 02:17:29;;;;;;;21.42;11.40;;;12.40;99.90;;;;;;5013820;28;20018;-78
2023/05/06 02:19:55;;;;;;;24.95;12.15;;;12.50;99.90;;;;;;4994420;28;20090;-79
2023/05/06 02:22:20;;;;;;;22.13;12.00;;;12.50;99.90;;;;;;5004003;28;20444;-79
2023/05/06 02:24:46;;;;;;;22.00;11.68;;;12.50;99.90;;;;;;5014220;28;20034;-79
2023/05/06 02:27:12;;;;;;;22.13;11.73;;;12.50;99.90;;;;;;5017083;28;20026;-79
2023/05/06 02:29:37;;;;;;;23.90;11.68;;;12.40;99.90;;;;;;5014676;28;20033;-79
2023/05/06 02:32:03;;;;;;;23.35;12.98;;;12.40;99.90;;;;;;5014531;28;20385;-79
2023/05/06 02:34:29;;;;;;;22.63;12.05;;;12.40;99.90;;;;;;5013484;28;20401;-79
2023/05/06 02:36:55;;;;;;;20.67;11.70;;;12.30;99.90;;;;;;5009029;28;20660;-79
2023/05/06 02:39:21;;;;;;;21.98;11.02;;;12.30;99.90;;;;;;4994167;28;20484;-79
2023/05/06 02:41:47;;;;;;;19.90;10.63;;;12.20;99.90;;;;;;5001870;28;20048;-79
2023/05/06 02:44:12;;;;;;;18.60;9.90;;;12.10;99.90;;;;;;5015407;28;20033;-79
2023/05/06 02:46:38;;;;;;;18.02;10.35;;;12.10;99.90;;;;;;5014117;28;20497;-79
2023/05/06 02:49:04;;;;;;;20.92;10.10;;;12.00;99.90;;;;;;5013778;28;20110;-79
2023/05/06 02:51:30;;;;;;;20.63;10.50;;;12.00;99.90;;;;;;5011466;28;20531;-79
2023/05/06 02:53:55;;;;;;;17.35;9.82;;;11.90;99.90;;;;;;5009707;28;20040;-78
2023/05/06 02:56:21;;;;;;;17.92;10.18;;;11.90;99.90;;;;;;5013091;28;20119;-78
2023/05/06 02:58:46;;;;;;;15.25;9.48;;;11.80;99.90;;;;;;5015328;28;20392;-78
2023/05/06 03:01:12;;;;;;;19.58;10.25;;;11.80;99.90;;;;;;5012865;28;20022;-78
2023/05/06 03:03:38;;;;;;;22.05;10.88;;;11.80;99.90;;;;;;5011138;28;20044;-79
2023/05/06 03:06:03;;;;;;;19.55;10.80;;;11.80;99.90;;;;;;5011759;28;20022;-79
2023/05/06 03:08:29;;;;;;;20.40;10.95;;;11.80;99.90;;;;;;4987282;28;20025;-79
2023/05/06 03:10:55;;;;;;;23.02;11.20;;;11.80;99.90;;;;;;5011884;28;20029;-78
2023/05/06 03:13:20;;;;;;;18.40;10.05;;;11.80;99.90;;;;;;5001632;28;20033;-78
2023/05/06 03:15:53;;;;;;;21.00;11.57;;;11.80;99.90;;;;;;5014739;28;20477;-78
2023/05/06 03:18:19;;;;;;;18.85;11.50;;;11.80;99.90;;;;;;4994176;28;20085;-78
2023/05/06 03:20:47;;;;;;;17.38;10.25;;;11.80;99.90;;;;;;5013223;28;20488;-79
2023/05/06 03:23:12;;;;;;;31.50;11.07;;;11.70;99.90;;;;;;4993749;28;20033;-78
2023/05/06 03:25:38;;;;;;;71.55;12.32;;;11.70;99.90;;;;;;5011213;28;20026;-79
2023/05/06 03:28:04;;;;;;;102.90;12.38;;;11.60;99.90;;;;;;5010567;28;20033;-78
2023/05/06 03:30:29;;;;;;;136.20;11.80;;;11.60;99.90;;;;;;5012288;28;20030;-79
2023/05/06 03:32:55;;;;;;;93.43;11.43;;;11.50;99.90;;;;;;5007215;28;20117;-79
2023/05/06 03:35:21;;;;;;;92.10;12.15;;;11.50;99.90;;;;;;5013344;28;20026;-79
2023/05/06 03:37:47;;;;;;;89.20;10.57;;;11.50;99.90;;;;;;5014519;28;20056;-79
2023/05/06 03:40:14;;;;;;;62.55;11.05;;;11.50;99.90;;;;;;5018398;28;20022;-79
2023/05/06 03:42:40;;;;;;;78.85;10.77;;;11.50;99.90;;;;;;5002362;28;20029;-78
2023/05/06 03:45:06;;;;;;;65.35;10.65;;;11.50;99.90;;;;;;5014227;28;20115;-79
2023/05/06 03:47:32;;;;;;;60.20;10.30;;;11.50;99.90;;;;;;5017493;28;20095;-79
2023/05/06 03:49:58;;;;;;;24.90;10.40;;;11.40;99.90;;;;;;5021688;28;20021;-79
2023/05/06 03:52:26;;;;;;;40.42;11.18;;;11.40;99.90;;;;;;5022316;28;20472;-79
2023/05/06 03:54:51;;;;;;;55.97;10.88;;;11.40;99.90;;;;;;5017779;28;20109;-79
2023/05/06 03:57:17;;;;;;;31.70;10.63;;;11.40;99.90;;;;;;5011418;28;20109;-79
2023/05/06 03:59:42;;;;;;;34.20;10.27;;;11.40;99.90;;;;;;4995090;28;20056;-79
2023/05/06 04:02:08;;;;;;;36.58;10.35;;;11.40;99.90;;;;;;5011436;28;20024;-79
2023/05/06 04:04:34;;;;;;;33.58;10.57;;;11.40;99.90;;;;;;5014652;28;20017;-78
2023/05/06 04:06:59;;;;;;;39.58;10.23;;;11.30;99.90;;;;;;4995298;28;20048;-78
2023/05/06 04:09:25;;;;;;;31.55;9.52;;;11.30;99.90;;;;;;4999155;28;20101;-79
2023/05/06 04:11:51;;;;;;;27.10;9.68;;;11.30;99.90;;;;;;5005249;28;20272;-78
2023/05/06 04:14:16;;;;;;;17.17;9.95;;;11.20;99.90;;;;;;5016647;28;20021;-79
2023/05/06 04:16:42;;;;;;;34.50;10.52;;;11.30;99.90;;;;;;5005457;28;20033;-78
2023/05/06 04:19:08;;;;;;;49.05;10.65;;;11.20;99.90;;;;;;5015758;28;20072;-79
2023/05/06 04:21:33;;;;;;;43.65;10.15;;;11.20;99.90;;;;;;5012847;28;20033;-78
2023/05/06 04:23:59;;;;;;;43.83;10.02;;;11.20;99.90;;;;;;5017006;28;20520;-78
2023/05/06 04:26:25;;;;;;;43.28;9.95;;;11.10;99.90;;;;;;5019431;28;20039;-78
2023/05/06 04:28:52;;;;;;;38.25;10.70;;;11.20;99.90;;;;;;5014249;28;20091;-79
2023/05/06 04:31:18;;;;;;;45.00;9.80;;;11.10;99.90;;;;;;5016084;28;20022;-78
2023/05/06 04:33:44;;;;;;;59.78;10.60;;;11.10;99.90;;;;;;5015034;28;20053;-78
2023/05/06 04:36:12;;;;;;;94.93;11.70;;;11.10;99.90;;;;;;5012514;28;20472;-78
2023/05/06 04:38:38;;;;;;;91.95;11.98;;;11.20;99.90;;;;;;4996258;28;20033;-79
2023/05/06 04:41:04;;;;;;;46.53;12.77;;;11.10;99.90;;;;;;5018968;28;20021;-79
2023/05/06 04:43:30;;;;;;;79.20;11.23;;;11.20;99.90;;;;;;5010024;28;20021;-78
2023/05/06 04:45:56;;;;;;;65.78;12.32;;;11.30;99.90;;;;;;5015267;28;20388;-79
2023/05/06 04:48:25;;;;;;;62.20;12.40;;;11.30;99.90;;;;;;5014781;28;20464;-79
2023/05/06 04:50:50;;;;;;;89.13;12.18;;;11.40;99.90;;;;;;4998770;28;20115;-78
2023/05/06 04:53:16;;;;;;;115.32;11.75;;;11.40;99.90;;;;;;4994658;28;20022;-80
2023/05/06 04:55:42;;;;;;;124.00;13.23;;;11.50;99.90;;;;;;5004762;28;20076;-79
2023/05/06 04:58:08;;;;;;;141.55;13.88;;;11.50;99.90;;;;;;4998026;28;20025;-79
2023/05/06 05:00:34;;;;;;;74.25;13.10;;;11.50;99.90;;;;;;5017809;28;20029;-79
2023/05/06 05:03:00;;;;;;;128.82;13.50;;;11.60;99.90;;;;;;5018804;28;20392;-78
2023/05/06 05:05:31;;;;;;;86.50;13.57;;;11.70;99.90;;;;;;4995610;28;20037;-79
2023/05/06 05:07:56;;;;;;;112.90;12.90;;;11.60;99.90;;;;;;5016056;28;20441;-79
2023/05/06 05:10:22;;;;;;;85.95;13.43;;;11.70;99.90;;;;;;5016575;28;20084;-78
2023/05/06 05:12:51;;;;;;;95.13;13.57;;;11.70;99.90;;;;;;5015510;28;20244;-79
2023/05/06 05:15:16;;;;;;;82.22;13.57;;;11.70;99.90;;;;;;5017013;28;20060;-78
2023/05/06 05:17:43;;;;;;;88.63;13.27;;;11.80;99.90;;;;;;5017263;28;20057;-79
2023/05/06 05:20:09;;;;;;;94.40;13.38;;;11.80;99.90;;;;;;4995961;28;20037;-79
2023/05/06 05:22:35;;;;;;;86.13;13.75;;;11.90;99.90;;;;;;5017796;28;20025;-79
2023/05/06 05:25:01;;;;;;;141.98;13.73;;;12.00;99.90;;;;;;5016436;28;20424;-80
2023/05/06 05:27:26;;;;;;;65.38;14.82;;;12.10;99.90;;;;;;5016189;28;20037;-79
2023/05/06 05:29:52;;;;;;;75.80;14.50;;;12.20;99.90;;;;;;5013579;28;20048;-78
2023/05/06 05:32:18;;;;;;;116.55;15.85;;;12.20;99.90;;;;;;5004518;28;20088;-79
2023/05/06 05:34:45;;;;;;;92.60;13.85;;;12.30;99.90;;;;;;5000025;28;20048;-80
2023/05/06 05:37:13;;;;;;;87.43;14.60;;;12.30;99.90;;;;;;5015344;28;20018;-78
2023/05/06 05:39:38;;;;;;;91.55;14.10;;;12.30;99.90;;;;;;4994086;28;20026;-79
2023/05/06 05:42:07;;;;;;;76.05;14.48;;;12.30;99.90;;;;;;5013169;28;20035;-79
2023/05/06 05:44:33;;;;;;;101.68;15.40;;;12.50;99.90;;;;;;4998673;28;20025;-79
2023/05/06 05:46:58;;;;;;;111.72;15.98;;;12.60;99.90;;;;;;5014863;28;20045;-79
2023/05/06 05:49:24;;;;;;;69.32;15.98;;;12.60;99.90;;;;;;5015307;28;20090;-79
2023/05/06 05:51:49;;;;;;;79.93;15.45;;;12.70;99.90;;;;;;5011392;28;20389;-81
2023/05/06 05:54:15;;;;;;;50.78;17.33;;;12.80;99.90;;;;;;4995081;28;20021;-79
2023/05/06 05:56:47;;;;;;;83.47;18.20;;;12.90;99.90;;;;;;5015021;28;20065;-79
2023/05/06 05:59:12;;;;;;;90.47;17.83;;;13.00;99.90;;;;;;4997674;28;20037;-80
2023/05/06 06:01:38;;;;;;;74.18;16.85;;;13.10;99.90;;;;;;5012976;28;20112;-79
2023/05/06 06:04:03;;;;;;;73.13;17.55;;;13.20;99.90;;;;;;5012568;28;20398;-80
2023/05/06 06:06:30;;;;;;;71.60;19.00;;;13.30;99.90;;;;;;5011748;28;20101;-79
2023/05/06 06:08:55;;;;;;;71.95;17.15;;;13.40;99.90;;;;;;5002649;28;20150;-79
2023/05/06 06:11:21;;;;;;;75.85;17.15;;;13.50;99.90;;;;;;5012248;28;20104;-79
2023/05/06 06:13:47;;;;;;;58.63;18.20;;;13.50;99.90;;;;;;5014371;28;20523;-79
2023/05/06 06:16:12;;;;;;;43.40;17.73;;;13.50;99.90;;;;;;4997840;28;20513;-79
2023/05/06 06:18:38;;;;;;;52.28;17.75;;;13.50;99.90;;;;;;5009121;28;20076;-79
2023/05/06 06:21:04;;;;;;;60.05;19.38;;;13.70;99.90;;;;;;5030154;28;20045;-80
2023/05/06 06:23:29;;;;;;;78.93;19.20;;;13.80;99.90;;;;;;5003691;28;20113;-78
2023/05/06 06:25:55;;;;;;;66.70;19.25;;;13.80;99.90;;;;;;5017498;28;20032;-80
2023/05/06 06:28:21;;;;;;;55.55;19.55;;;13.80;99.90;;;;;;5015665;28;20520;-78
2023/05/06 06:30:46;;;;;;;57.88;19.73;;;13.90;99.90;;;;;;5001654;28;20025;-79
2023/05/06 06:33:12;;;;;;;38.75;20.05;;;13.90;99.90;;;;;;5014872;28;20029;-79
2023/05/06 06:35:37;;;;;;;44.72;18.92;;;14.00;99.90;;;;;;5016485;28;20041;-79
2023/05/06 06:38:03;;;;;;;40.05;18.50;;;14.20;99.90;;;;;;5014310;28;20543;-79
2023/05/06 06:40:29;;;;;;;53.10;19.48;;;14.20;99.90;;;;;;5027880;28;20089;-80
2023/05/06 06:42:54;;;;;;;38.15;19.35;;;14.20;99.90;;;;;;5017320;28;20021;-80
2023/05/06 06:45:21;;;;;;;44.28;19.33;;;14.10;99.90;;;;;;5025714;28;20724;-80
2023/05/06 06:47:46;;;;;;;42.65;19.23;;;14.30;99.90;;;;;;5026051;28;20028;-80
2023/05/06 06:50:12;;;;;;;40.10;19.95;;;14.50;99.90;;;;;;5002858;28;20030;-79
2023/05/06 06:52:38;;;;;;;41.67;19.13;;;14.70;99.90;;;;;;5015579;28;20527;-79
2023/05/06 06:55:03;;;;;;;41.50;19.48;;;14.90;99.90;;;;;;4995186;28;20120;-79
2023/05/06 06:57:29;;;;;;;41.33;20.27;;;14.90;99.90;;;;;;5010805;28;20363;-78
2023/05/06 06:59:57;;;;;;;42.20;20.13;;;15.00;99.90;;;;;;5011607;28;20102;-80
2023/05/06 07:02:23;;;;;;;41.42;19.10;;;14.90;99.90;;;;;;5014008;28;20068;-79
2023/05/06 07:04:51;;;;;;;44.25;19.70;;;15.00;99.90;;;;;;5011949;28;20018;-80
2023/05/06 07:07:16;;;;;;;46.30;20.95;;;15.20;99.90;;;;;;5016646;28;20033;-79
2023/05/06 07:09:43;;;;;;;42.53;19.95;;;15.40;99.90;;;;;;5013385;28;20036;-80
2023/05/06 07:12:08;;;;;;;46.10;20.48;;;15.50;99.90;;;;;;5016720;28;20249;-78
2023/05/06 07:14:34;;;;;;;42.13;21.15;;;15.60;99.90;;;;;;5013337;28;20022;-79
2023/05/06 07:17:00;;;;;;;45.53;20.13;;;15.70;99.90;;;;;;5013522;28;20037;-78
2023/05/06 07:19:27;;;;;;;45.90;20.73;;;15.90;99.90;;;;;;5010520;28;20278;-79
2023/05/06 07:21:55;;;;;;;38.33;19.13;;;15.90;99.90;;;;;;4992926;28;20535;-79
2023/05/06 07:24:21;;;;;;;42.30;20.20;;;15.90;99.90;;;;;;5010430;28;20068;-83
2023/05/06 07:26:47;;;;;;;37.28;19.52;;;16.00;99.90;;;;;;4995305;28;20774;-82
2023/05/06 07:29:15;;;;;;;183.70;81.63;;;16.00;99.90;;;;;;5011527;28;20026;-84
2023/05/06 07:31:40;;;;;;;63.03;25.50;;;16.00;99.90;;;;;;4998055;28;20021;-78
2023/05/06 07:34:06;;;;;;;46.10;19.58;;;16.10;99.90;;;;;;5014341;28;20087;-77
2023/05/06 07:36:39;;;;;;;41.75;20.20;;;16.10;99.90;;;;;;5012391;28;20555;-77
2023/05/06 07:39:08;;;;;;;39.80;20.88;;;16.30;99.90;;;;;;5011050;28;20033;-77
2023/05/06 07:41:34;;;;;;;43.05;19.75;;;16.50;99.90;;;;;;5013952;28;20506;-77
2023/05/06 07:44:00;;;;;;;38.17;19.17;;;16.70;99.90;;;;;;5016691;28;20022;-77
2023/05/06 07:46:25;;;;;;;38.90;18.15;;;16.70;99.90;;;;;;5017556;28;20382;-77
2023/05/06 07:48:51;;;;;;;38.10;19.17;;;16.80;99.90;;;;;;5135667;23;20045;-78
2023/05/06 07:51:18;;;;;;;36.60;19.25;;;17.00;99.90;;;;;;5001833;28;20121;-76
2023/05/06 07:53:43;;;;;;;39.22;18.88;;;17.20;99.90;;;;;;5017408;28;20096;-76
2023/05/06 07:56:09;;;;;;;30.27;15.75;;;17.30;99.90;;;;;;5013218;28;20045;-78
2023/05/06 07:58:35;;;;;;;37.33;18.27;;;17.30;99.90;;;;;;4991664;28;20104;-78
2023/05/06 08:01:02;;;;;;;35.30;18.60;;;17.60;99.90;;;;;;5014146;28;20109;-78
2023/05/06 08:03:30;;;;;;;38.72;18.15;;;18.00;99.90;;;;;;5015483;28;20075;-78
2023/05/06 08:05:56;;;;;;;28.83;15.45;;;18.20;99.90;;;;;;4998238;28;20171;-77
2023/05/06 08:08:22;;;;;;;29.52;16.33;;;18.50;99.90;;;;;;5014754;28;20053;-78
2023/05/06 08:10:48;;;;;;;32.90;17.27;;;18.50;99.90;;;;;;5000431;28;20029;-79
2023/05/06 08:13:18;;;;;;;31.42;17.00;;;18.60;99.90;;;;;;5006292;28;20340;-77
2023/05/06 08:15:43;;;;;;;28.27;16.23;;;18.80;99.90;;;;;;4993270;28;20037;-76
2023/05/06 08:18:09;;;;;;;28.73;15.00;;;19.20;99.90;;;;;;4995598;28;20496;-77
2023/05/06 08:20:35;;;;;;;24.98;12.02;;;19.40;99.90;;;;;;4999304;28;20083;-76
2023/05/06 08:23:00;;;;;;;453.77;198.55;;;19.60;99.90;;;;;;4997008;28;20491;-78
2023/05/06 08:25:26;;;;;;;14.57;8.70;;;19.70;99.90;;;;;;5016632;28;20028;-76
2023/05/06 08:27:51;;;;;;;12.27;7.70;;;19.70;99.90;;;;;;5017966;28;20443;-79
2023/05/06 08:30:17;;;;;;;12.40;7.25;;;19.70;99.90;;;;;;5014198;28;20098;-76
2023/05/06 08:32:43;;;;;;;12.07;7.40;;;19.70;99.90;;;;;;5005300;28;20116;-76
2023/05/06 08:35:08;;;;;;;11.13;7.93;;;19.80;99.90;;;;;;5016267;28;20505;-77
2023/05/06 08:37:34;;;;;;;14.98;8.88;;;20.00;99.90;;;;;;5013667;28;20022;-78
2023/05/06 08:40:00;;;;;;;12.60;8.00;;;20.40;99.90;;;;;;5004015;28;20554;-78
2023/05/06 08:42:27;;;;;;;19.40;9.65;;;20.90;99.90;;;;;;5019148;28;20026;-78
2023/05/06 08:44:55;;;;;;;16.95;9.45;;;20.90;99.90;;;;;;4992690;28;20107;-78
2023/05/06 08:47:21;;;;;;;12.93;8.98;;;20.90;99.90;;;;;;4989345;28;20029;-77
2023/05/06 08:49:47;;;;;;;13.35;7.93;;;21.00;99.90;;;;;;5022967;28;20030;-78
2023/05/06 08:52:13;;;;;;;14.35;8.98;;;21.20;99.90;;;;;;5024068;28;20432;-81
2023/05/06 08:54:40;;;;;;;12.13;6.90;;;21.40;99.90;;;;;;5019816;28;20026;-77
2023/05/06 08:57:10;;;;;;;12.88;7.60;;;21.20;99.90;;;;;;4998628;28;20037;-79
2023/05/06 08:59:36;;;;;;;12.40;8.50;;;21.20;99.90;;;;;;5012915;28;20058;-77
2023/05/06 09:02:03;;;;;;;13.70;7.90;;;21.20;99.90;;;;;;5014232;28;20470;-78
2023/05/06 09:04:32;;;;;;;11.27;7.10;;;21.30;99.90;;;;;;5014920;28;20026;-75
2023/05/06 09:06:58;;;;;;;19.60;9.15;;;21.50;99.90;;;;;;5012308;28;20033;-78
2023/05/06 09:09:25;;;;;;;12.82;5.70;;;21.40;99.90;;;;;;5014769;28;20025;-77
2023/05/06 09:11:52;;;;;;;10.60;6.25;;;21.30;99.90;;;;;;5012934;28;20084;-77
2023/05/06 09:14:20;;;;;;;4.63;3.78;;;21.20;99.90;;;;;;5012610;28;20178;-77
2023/05/06 09:16:48;;;;;;;5.35;3.70;;;21.40;99.90;;;;;;5003016;28;20131;-77
2023/05/06 09:19:15;;;;;;;4.72;3.58;;;21.60;99.90;;;;;;5014364;28;20104;-78
2023/05/06 09:21:43;;;;;;;7.90;4.35;;;21.70;99.90;;;;;;5012557;28;20501;-77
2023/05/06 09:24:10;;;;;;;7.95;4.82;;;21.90;99.90;;;;;;4998178;28;20508;-77
2023/05/06 09:26:37;;;;;;;7.85;4.68;;;22.20;99.90;;;;;;5016454;28;20233;-77
2023/05/06 09:29:03;;;;;;;9.43;5.07;;;22.70;99.90;;;;;;5018147;28;20552;-77
2023/05/06 09:31:29;;;;;;;8.13;5.63;;;22.90;99.90;;;;;;5015389;28;20026;-78
2023/05/06 09:33:56;;;;;;;9.38;6.10;;;23.20;99.90;;;;;;5002739;28;20026;-82
2023/05/06 09:36:25;;;;;;;7.45;5.50;;;23.80;99.90;;;;;;5016639;28;20121;-82
2023/05/06 09:38:52;;;;;;;9.73;6.00;;;23.90;99.50;;;;;;5011888;28;20013;-80
2023/05/06 09:41:19;;;;;;;30.92;16.13;;;23.90;98.90;;;;;;5011136;28;20470;-80
2023/05/06 09:43:47;;;;;;;8.38;6.25;;;23.50;99.90;;;;;;5001940;28;20705;-81
2023/05/06 09:46:14;;;;;;;11.27;6.22;;;23.60;99.60;;;;;;5013793;28;20022;-80
2023/05/06 09:48:40;;;;;;;9.65;5.72;;;23.70;99.10;;;;;;5009821;28;20022;-82
2023/05/06 09:51:06;;;;;;;8.93;5.90;;;23.70;98.20;;;;;;4996217;28;20520;-85
2023/05/06 09:53:36;;;;;;;10.52;6.10;;;24.10;97.90;;;;;;5004477;28;20500;-85
2023/05/06 09:56:06;;;;;;;7.82;5.80;;;24.90;99.10;;;;;;5001880;28;20083;-82
2023/05/06 09:58:32;;;;;;;7.80;5.25;;;25.00;96.20;;;;;;4996942;28;20045;-80
2023/05/06 10:00:58;;;;;;;5.95;4.82;;;25.60;96.40;;;;;;4997113;28;20400;-80
2023/05/06 10:03:25;;;;;;;6.57;4.65;;;25.60;93.50;;;;;;5015867;28;20018;-80
2023/05/06 10:05:53;;;;;;;5.20;4.50;;;25.20;92.80;;;;;;5000475;28;20565;-81
2023/05/06 10:08:21;;;;;;;6.95;3.90;;;24.80;93.80;;;;;;5016252;28;20508;-80
2023/05/06 10:10:50;;;;;;;5.20;4.00;;;24.80;94.80;;;;;;5005578;28;20024;-80
2023/05/06 10:13:18;;;;;;;7.30;4.95;;;25.10;93.70;;;;;;5000738;28;20375;-79
2023/05/06 10:15:46;;;;;;;6.45;5.13;;;25.40;92.90;;;;;;5013581;28;20314;-80
2023/05/06 10:18:15;;;;;;;5.75;4.20;;;25.80;91.50;;;;;;5001045;28;20034;-79
2023/05/06 10:20:43;;;;;;;7.35;4.22;;;25.90;91.50;;;;;;5014178;28;20049;-79
2023/05/06 10:23:29;;;;;;;4.85;4.38;;;26.10;90.50;;;;;;5010109;28;20069;-79
2023/05/06 10:25:56;;;;;;;6.85;4.47;;;26.20;90.00;;;;;;5014580;28;20030;-79
2023/05/06 10:28:23;;;;;;;7.13;4.38;;;26.20;90.30;;;;;;5010967;28;20026;-79
2023/05/06 10:30:51;;;;;;;10.93;6.15;;;26.40;88.50;;;;;;5012511;28;20060;-80
2023/05/06 10:33:17;;;;;;;10.25;6.28;;;25.90;90.50;;;;;;5013795;28;20017;-79
2023/05/06 10:35:54;;;;;;;7.38;5.57;;;25.80;90.60;;;;;;5131408;23;20079;-78
2023/05/06 10:38:28;;;;;;;8.27;5.93;;;25.80;90.00;;;;;;5015723;28;20032;-81
2023/05/06 10:40:54;;;;;;;8.13;4.80;;;25.90;87.70;;;;;;5010041;28;20041;-81
2023/05/06 10:43:35;;;;;;;7.47;5.50;;;26.20;90.30;;;;;;4994182;28;20092;-81
2023/05/06 10:46:15;;;;;;;8.93;4.07;;;26.90;83.40;;;;;;5012114;28;20025;-82
2023/05/06 10:49:12;;;;;;;3.58;3.00;;;27.10;79.10;;;;;;4994860;28;20140;-81
2023/05/06 10:51:39;;;;;;;7.35;2.90;;;27.20;74.40;;;;;;5012284;28;20116;-85
2023/05/06 10:54:06;;;;;;;1.58;1.40;;;27.30;73.50;;;;;;4999336;28;20460;-80
2023/05/06 10:56:33;;;;;;;2.20;1.67;;;27.30;65.80;;;;;;5009889;28;20033;-80
2023/05/06 10:59:07;;;;;;;2.53;1.25;;;27.30;66.50;;;;;;5011931;28;20021;-80
2023/05/06 11:01:34;;;;;;;1.70;1.30;;;26.70;63.30;;;;;;5018574;28;20468;-80
2023/05/06 11:04:06;;;;;;;2.30;1.92;;;26.80;63.40;;;;;;5000854;28;20029;-78
2023/05/06 11:07:02;;;;;;;1.77;1.67;;;26.60;66.30;;;;;;5011798;28;20880;-81
2023/05/06 11:09:28;;;;;;;1.17;1.08;;;26.90;67.10;;;;;;4991849;28;20059;-79
2023/05/06 11:12:04;;;;;;;1.63;1.50;;;27.20;61.70;;;;;;5011646;28;20026;-78
2023/05/06 11:14:37;;;;;;;2.55;1.33;;;26.80;59.10;;;;;;5009197;28;20033;-79
2023/05/06 11:17:03;;;;;;;;;;;26.40;60.20;;;;;;5011768;28;20144;-78
2023/05/06 11:19:34;;;;;;;1.50;1.35;;;26.20;61.80;;;;;;5018976;28;19909;-84
2023/05/06 11:22:02;;;;;;;2.05;1.50;;;26.20;63.70;;;;;;5018107;28;20040;-86
2023/05/06 11:24:37;;;;;;;1.48;1.10;;;26.30;66.60;;;;;;4997699;28;20311;-85
2023/05/06 11:27:02;;;;;;;3.80;1.67;;;26.50;59.80;;;;;;4996721;28;20044;-85
2023/05/06 11:29:28;;;;;;;2.92;1.65;;;26.40;60.70;;;;;;5002762;28;20754;-81
2023/05/06 11:31:54;;;;;;;2.38;1.80;;;26.30;62.20;;;;;;5009612;28;20225;-81
2023/05/06 11:34:26;;;;;;;2.28;2.13;;;26.10;64.10;;;;;;4993947;28;20036;-79
2023/05/06 11:37:05;;;;;;;3.00;1.88;;;26.00;66.20;;;;;;5011083;28;20059;-78
2023/05/06 11:39:33;;;;;;;1.98;1.85;;;26.30;66.90;;;;;;4991834;28;20123;-79
2023/05/06 11:42:05;;;;;;;3.55;1.90;;;26.30;65.00;;;;;;4997571;28;20060;-82
2023/05/06 11:44:38;;;;;;;4.10;2.22;;;26.40;64.30;;;;;;4996396;28;20044;-87
2023/05/06 11:47:06;;;;;;;5.40;2.88;;;26.40;64.10;;;;;;4992858;28;20037;-79
2023/05/06 11:49:40;;;;;;;4.45;1.90;;;26.90;63.40;;;;;;5011187;28;20030;-79
2023/05/06 11:52:07;;;;;;;3.08;1.42;;;27.00;64.60;;;;;;5006074;28;20065;-80
2023/05/06 11:54:37;;;;;;;3.70;1.80;;;26.80;60.30;;;;;;5008511;28;20022;-79
2023/05/06 11:57:06;;;;;;;2.15;1.55;;;26.50;60.20;;;;;;4996882;28;20065;-80
2023/05/06 11:59:33;;;;;;;1.45;0.98;;;26.80;59.80;;;;;;5008428;28;20477;-79
2023/05/06 12:02:00;;;;;;;3.20;1.63;;;27.00;58.60;;;;;;4994695;28;20123;-81
2023/05/06 12:04:26;;;;;;;4.70;1.83;;;26.90;58.90;;;;;;4993633;28;20470;-81
2023/05/06 12:06:55;;;;;;;1.85;1.00;;;27.00;58.60;;;;;;4999876;28;20381;-81
2023/05/06 12:09:23;;;;;;;4.13;1.17;;;27.10;57.30;;;;;;4997636;28;20031;-78
2023/05/06 12:11:52;;;;;;;3.30;1.33;;;27.50;59.20;;;;;;5010686;28;20029;-85
2023/05/06 12:14:18;;;;;;;2.65;1.42;;;27.80;56.90;;;;;;4996843;28;20040;-83
2023/05/06 12:16:44;;;;;;;4.97;1.50;;;27.10;57.90;;;;;;4994991;28;20040;-79
2023/05/06 12:19:10;;;;;;;2.13;1.50;;;27.10;57.90;;;;;;5009255;28;20029;-83
2023/05/06 12:21:37;;;;;;;2.88;1.33;;;26.60;58.70;;;;;;5000130;28;20052;-79
2023/05/06 12:24:03;;;;;;;2.63;1.70;;;27.20;59.20;;;;;;5009807;28;20037;-79
2023/05/06 12:26:44;;;;;;;2.70;1.75;;;27.60;59.90;;;;;;4991068;28;20030;-83
2023/05/06 12:29:12;;;;;;;3.15;1.63;;;27.60;57.20;;;;;;4995354;28;20095;-84
2023/05/06 12:31:38;;;;;;;3.08;1.83;;;27.60;56.50;;;;;;4996624;28;20026;-78
2023/05/06 12:34:06;;;;;;;3.63;1.95;;;27.80;56.90;;;;;;5012205;28;20073;-78